Asheboro, North Carolina
Current Conditions -  °F | °C
As of 5:35 AM on Thursday 25 Dec 2014 (Local Time) from KHBI Reporting Station
Scattered Clouds Scattered Clouds  
Wind Chill: 11°   Ceiling: Unl
Heat Index: 11°   Visibility: 10mi
Dew Point:   Wind: 3mph
Humidity: 67%   Direction: 260°W
Pressure: 29.9"   Gusts: NA
Location:  35.71°N, 79.81°W
Report Text: KHBI 251035Z AUTO 26003KT 10SM SCT037 SCT047 11/05 A2990 RMK AO2 T01070047
Loading
Personal Weather Stations






























Interactive Weather Map New forecast layout! Learn more

10-Day Weather Forecast

Advertisements
Track Severe Weather on mobile